sensor_id;sensor_type;location;lat;lon;timestamp;P1;durP1;ratioP1;P2;durP2;ratioP2
27223;SDS011;14965;50.660;13.226;2023-06-14T00:00:53;9.80;;;7.47;;
27223;SDS011;14965;50.660;13.226;2023-06-14T00:03:19;12.25;;;7.32;;
27223;SDS011;14965;50.660;13.226;2023-06-14T00:05:44;9.65;;;7.50;;
27223;SDS011;14965;50.660;13.226;2023-06-14T00:08:12;11.15;;;7.57;;
27223;SDS011;14965;50.660;13.226;2023-06-14T00:10:39;12.57;;;7.63;;
27223;SDS011;14965;50.660;13.226;2023-06-14T00:13:05;11.48;;;7.50;;
27223;SDS011;14965;50.660;13.226;2023-06-14T00:15:31;12.85;;;7.63;;
27223;SDS011;14965;50.660;13.226;2023-06-14T00:17:57;10.70;;;7.25;;
27223;SDS011;14965;50.660;13.226;2023-06-14T00:20:23;11.15;;;7.10;;
27223;SDS011;14965;50.660;13.226;2023-06-14T00:22:48;12.02;;;7.15;;
27223;SDS011;14965;50.660;13.226;2023-06-14T00:25:16;10.55;;;7.57;;
27223;SDS011;14965;50.660;13.226;2023-06-14T00:27:42;10.98;;;7.30;;
27223;SDS011;14965;50.660;13.226;2023-06-14T00:30:08;11.43;;;7.80;;
27223;SDS011;14965;50.660;13.226;2023-06-14T00:32:35;13.82;;;7.93;;
27223;SDS011;14965;50.660;13.226;2023-06-14T00:35:01;12.30;;;7.70;;
27223;SDS011;14965;50.660;13.226;2023-06-14T00:37:27;13.25;;;7.53;;
27223;SDS011;14965;50.660;13.226;2023-06-14T00:39:53;14.38;;;7.97;;
27223;SDS011;14965;50.660;13.226;2023-06-14T00:42:24;12.75;;;7.95;;
27223;SDS011;14965;50.660;13.226;2023-06-14T00:44:50;11.00;;;7.43;;
27223;SDS011;14965;50.660;13.226;2023-06-14T00:47:16;13.90;;;8.60;;
27223;SDS011;14965;50.660;13.226;2023-06-14T00:49:42;10.60;;;8.30;;
27223;SDS011;14965;50.660;13.226;2023-06-14T00:52:10;10.52;;;7.65;;
27223;SDS011;14965;50.660;13.226;2023-06-14T00:54:36;11.23;;;7.88;;
27223;SDS011;14965;50.660;13.226;2023-06-14T00:57:02;10.05;;;7.63;;
27223;SDS011;14965;50.660;13.226;2023-06-14T00:59:29;12.40;;;7.95;;
27223;SDS011;14965;50.660;13.226;2023-06-14T01:01:55;13.90;;;8.15;;
27223;SDS011;14965;50.660;13.226;2023-06-14T01:04:21;13.80;;;8.25;;
27223;SDS011;14965;50.660;13.226;2023-06-14T01:06:49;14.73;;;8.05;;
27223;SDS011;14965;50.660;13.226;2023-06-14T01:09:27;13.73;;;7.97;;
27223;SDS011;14965;50.660;13.226;2023-06-14T01:12:07;14.38;;;7.95;;
27223;SDS011;14965;50.660;13.226;2023-06-14T01:14:43;10.95;;;8.00;;
27223;SDS011;14965;50.660;13.226;2023-06-14T01:17:13;9.88;;;7.10;;
27223;SDS011;14965;50.660;13.226;2023-06-14T01:19:39;10.15;;;7.70;;
27223;SDS011;14965;50.660;13.226;2023-06-14T01:22:06;10.88;;;7.75;;
27223;SDS011;14965;50.660;13.226;2023-06-14T01:24:34;10.82;;;7.50;;
27223;SDS011;14965;50.660;13.226;2023-06-14T01:27:00;10.07;;;7.32;;
27223;SDS011;14965;50.660;13.226;2023-06-14T01:29:27;11.25;;;7.70;;
27223;SDS011;14965;50.660;13.226;2023-06-14T01:31:54;10.18;;;7.05;;
27223;SDS011;14965;50.660;13.226;2023-06-14T01:34:20;14.30;;;7.68;;
27223;SDS011;14965;50.660;13.226;2023-06-14T01:36:46;7.88;;;6.82;;
27223;SDS011;14965;50.660;13.226;2023-06-14T01:39:15;10.15;;;6.85;;
27223;SDS011;14965;50.660;13.226;2023-06-14T01:41:44;12.27;;;7.35;;
27223;SDS011;14965;50.660;13.226;2023-06-14T01:44:14;11.02;;;6.93;;
27223;SDS011;14965;50.660;13.226;2023-06-14T01:46:42;10.40;;;7.30;;
27223;SDS011;14965;50.660;13.226;2023-06-14T01:49:10;11.55;;;7.03;;
27223;SDS011;14965;50.660;13.226;2023-06-14T01:51:36;8.68;;;6.57;;
27223;SDS011;14965;50.660;13.226;2023-06-14T01:54:02;10.25;;;7.70;;
27223;SDS011;14965;50.660;13.226;2023-06-14T01:56:28;10.13;;;7.35;;
27223;SDS011;14965;50.660;13.226;2023-06-14T01:58:55;9.93;;;7.32;;
27223;SDS011;14965;50.660;13.226;2023-06-14T02:01:21;8.85;;;7.53;;
27223;SDS011;14965;50.660;13.226;2023-06-14T02:03:47;10.52;;;7.03;;
27223;SDS011;14965;50.660;13.226;2023-06-14T02:06:13;12.85;;;7.30;;
27223;SDS011;14965;50.660;13.226;2023-06-14T02:08:39;11.32;;;6.72;;
27223;SDS011;14965;50.660;13.226;2023-06-14T02:11:05;9.23;;;6.82;;
27223;SDS011;14965;50.660;13.226;2023-06-14T02:13:31;10.10;;;7.30;;
27223;SDS011;14965;50.660;13.226;2023-06-14T02:15:58;10.52;;;7.05;;
27223;SDS011;14965;50.660;13.226;2023-06-14T02:18:24;10.48;;;7.28;;
27223;SDS011;14965;50.660;13.226;2023-06-14T02:20:49;11.25;;;7.38;;
27223;SDS011;14965;50.660;13.226;2023-06-14T02:23:15;12.23;;;7.93;;
27223;SDS011;14965;50.660;13.226;2023-06-14T02:25:41;12.02;;;7.75;;
27223;SDS011;14965;50.660;13.226;2023-06-14T02:28:07;11.95;;;7.47;;
27223;SDS011;14965;50.660;13.226;2023-06-14T02:30:33;10.90;;;7.78;;
27223;SDS011;14965;50.660;13.226;2023-06-14T02:33:00;10.98;;;7.70;;
27223;SDS011;14965;50.660;13.226;2023-06-14T02:35:26;10.07;;;7.43;;
27223;SDS011;14965;50.660;13.226;2023-06-14T02:37:52;11.35;;;7.45;;
27223;SDS011;14965;50.660;13.226;2023-06-14T02:40:18;11.13;;;7.18;;
27223;SDS011;14965;50.660;13.226;2023-06-14T02:42:45;10.75;;;7.45;;
27223;SDS011;14965;50.660;13.226;2023-06-14T02:45:10;11.82;;;7.80;;
27223;SDS011;14965;50.660;13.226;2023-06-14T02:47:36;13.35;;;7.70;;
27223;SDS011;14965;50.660;13.226;2023-06-14T02:50:04;9.88;;;7.20;;
27223;SDS011;14965;50.660;13.226;2023-06-14T02:52:33;10.63;;;7.07;;
27223;SDS011;14965;50.660;13.226;2023-06-14T02:54:59;15.10;;;7.32;;
27223;SDS011;14965;50.660;13.226;2023-06-14T02:57:25;10.65;;;7.45;;
27223;SDS011;14965;50.660;13.226;2023-06-14T02:59:50;12.30;;;7.82;;
27223;SDS011;14965;50.660;13.226;2023-06-14T03:02:16;12.57;;;8.02;;
27223;SDS011;14965;50.660;13.226;2023-06-14T03:04:42;11.10;;;7.55;;
27223;SDS011;14965;50.660;13.226;2023-06-14T03:07:09;14.73;;;7.40;;
27223;SDS011;14965;50.660;13.226;2023-06-14T03:09:35;9.80;;;6.88;;
27223;SDS011;14965;50.660;13.226;2023-06-14T03:12:01;9.90;;;7.47;;
27223;SDS011;14965;50.660;13.226;2023-06-14T03:14:28;11.13;;;7.82;;
27223;SDS011;14965;50.660;13.226;2023-06-14T03:16:54;10.23;;;7.47;;
27223;SDS011;14965;50.660;13.226;2023-06-14T03:19:19;10.52;;;7.22;;
27223;SDS011;14965;50.660;13.226;2023-06-14T03:21:45;9.18;;;7.10;;
27223;SDS011;14965;50.660;13.226;2023-06-14T03:24:12;10.98;;;7.50;;
27223;SDS011;14965;50.660;13.226;2023-06-14T03:26:38;11.35;;;7.07;;
27223;SDS011;14965;50.660;13.226;2023-06-14T03:29:04;12.32;;;7.15;;
27223;SDS011;14965;50.660;13.226;2023-06-14T03:31:30;8.70;;;7.20;;
27223;SDS011;14965;50.660;13.226;2023-06-14T03:33:56;10.60;;;7.28;;
27223;SDS011;14965;50.660;13.226;2023-06-14T03:36:22;11.18;;;7.22;;
27223;SDS011;14965;50.660;13.226;2023-06-14T03:38:47;12.13;;;7.50;;
27223;SDS011;14965;50.660;13.226;2023-06-14T03:41:14;11.32;;;7.60;;
27223;SDS011;14965;50.660;13.226;2023-06-14T03:43:40;10.05;;;7.20;;
27223;SDS011;14965;50.660;13.226;2023-06-14T03:46:06;12.35;;;7.50;;
27223;SDS011;14965;50.660;13.226;2023-06-14T03:48:32;13.63;;;7.65;;
27223;SDS011;14965;50.660;13.226;2023-06-14T03:50:58;10.45;;;7.18;;
27223;SDS011;14965;50.660;13.226;2023-06-14T03:53:24;9.30;;;6.75;;
27223;SDS011;14965;50.660;13.226;2023-06-14T03:55:50;9.98;;;7.07;;
27223;SDS011;14965;50.660;13.226;2023-06-14T03:58:17;11.90;;;7.32;;
27223;SDS011;14965;50.660;13.226;2023-06-14T04:00:43;10.10;;;7.68;;
27223;SDS011;14965;50.660;13.226;2023-06-14T04:03:08;9.23;;;7.05;;
27223;SDS011;14965;50.660;13.226;2023-06-14T04:05:34;10.05;;;7.13;;
27223;SDS011;14965;50.660;13.226;2023-06-14T04:08:00;10.18;;;6.85;;
27223;SDS011;14965;50.660;13.226;2023-06-14T04:10:26;11.02;;;6.90;;
27223;SDS011;14965;50.660;13.226;2023-06-14T04:12:52;10.48;;;7.50;;
27223;SDS011;14965;50.660;13.226;2023-06-14T04:15:19;9.23;;;6.88;;
27223;SDS011;14965;50.660;13.226;2023-06-14T04:17:45;9.32;;;6.85;;
27223;SDS011;14965;50.660;13.226;2023-06-14T04:20:11;10.60;;;7.13;;
27223;SDS011;14965;50.660;13.226;2023-06-14T04:22:37;10.45;;;6.82;;
27223;SDS011;14965;50.660;13.226;2023-06-14T04:25:03;13.27;;;6.68;;
27223;SDS011;14965;50.660;13.226;2023-06-14T04:27:30;8.70;;;6.25;;
27223;SDS011;14965;50.660;13.226;2023-06-14T04:29:56;11.30;;;6.32;;
27223;SDS011;14965;50.660;13.226;2023-06-14T04:32:24;8.43;;;5.47;;
27223;SDS011;14965;50.660;13.226;2023-06-14T04:37:17;9.05;;;5.40;;
27223;SDS011;14965;50.660;13.226;2023-06-14T04:39:43;9.80;;;5.28;;
27223;SDS011;14965;50.660;13.226;2023-06-14T04:42:09;9.18;;;5.32;;
27223;SDS011;14965;50.660;13.226;2023-06-14T04:44:35;8.07;;;5.45;;
27223;SDS011;14965;50.660;13.226;2023-06-14T04:47:01;6.80;;;5.20;;
27223;SDS011;14965;50.660;13.226;2023-06-14T04:49:28;7.75;;;5.00;;
27223;SDS011;14965;50.660;13.226;2023-06-14T04:51:55;7.40;;;4.70;;
27223;SDS011;14965;50.660;13.226;2023-06-14T04:54:22;8.75;;;4.70;;
27223;SDS011;14965;50.660;13.226;2023-06-14T04:56:48;5.82;;;4.25;;
27223;SDS011;14965;50.660;13.226;2023-06-14T04:59:14;6.53;;;4.88;;
27223;SDS011;14965;50.660;13.226;2023-06-14T05:01:40;6.00;;;4.57;;
27223;SDS011;14965;50.660;13.226;2023-06-14T05:04:06;5.80;;;4.47;;
27223;SDS011;14965;50.660;13.226;2023-06-14T05:06:33;6.47;;;4.82;;
27223;SDS011;14965;50.660;13.226;2023-06-14T05:08:59;7.05;;;4.47;;
27223;SDS011;14965;50.660;13.226;2023-06-14T05:11:25;6.82;;;4.75;;
27223;SDS011;14965;50.660;13.226;2023-06-14T05:13:51;5.20;;;4.45;;
27223;SDS011;14965;50.660;13.226;2023-06-14T05:16:17;6.00;;;4.78;;
27223;SDS011;14965;50.660;13.226;2023-06-14T05:18:42;8.27;;;4.53;;
27223;SDS011;14965;50.660;13.226;2023-06-14T05:21:08;7.43;;;4.60;;
27223;SDS011;14965;50.660;13.226;2023-06-14T05:23:35;8.65;;;4.80;;
27223;SDS011;14965;50.660;13.226;2023-06-14T05:26:01;6.68;;;4.35;;
27223;SDS011;14965;50.660;13.226;2023-06-14T05:28:27;9.18;;;4.90;;
27223;SDS011;14965;50.660;13.226;2023-06-14T05:30:53;8.73;;;4.63;;
27223;SDS011;14965;50.660;13.226;2023-06-14T05:33:19;5.93;;;4.70;;
27223;SDS011;14965;50.660;13.226;2023-06-14T05:35:45;6.85;;;4.57;;
27223;SDS011;14965;50.660;13.226;2023-06-14T05:38:10;5.28;;;4.53;;
27223;SDS011;14965;50.660;13.226;2023-06-14T05:40:38;6.57;;;4.38;;
27223;SDS011;14965;50.660;13.226;2023-06-14T05:43:03;8.70;;;4.22;;
27223;SDS011;14965;50.660;13.226;2023-06-14T05:45:29;5.97;;;4.50;;
27223;SDS011;14965;50.660;13.226;2023-06-14T05:47:55;10.23;;;4.57;;
27223;SDS011;14965;50.660;13.226;2023-06-14T05:50:21;6.88;;;4.75;;
27223;SDS011;14965;50.660;13.226;2023-06-14T05:52:47;4.28;;;3.85;;
27223;SDS011;14965;50.660;13.226;2023-06-14T05:55:13;7.53;;;4.60;;
27223;SDS011;14965;50.660;13.226;2023-06-14T05:57:42;7.40;;;4.57;;
27223;SDS011;14965;50.660;13.226;2023-06-14T06:00:08;6.43;;;4.03;;
27223;SDS011;14965;50.660;13.226;2023-06-14T06:02:36;5.43;;;3.97;;
27223;SDS011;14965;50.660;13.226;2023-06-14T06:05:02;4.90;;;3.88;;
27223;SDS011;14965;50.660;13.226;2023-06-14T06:07:28;6.00;;;3.78;;
27223;SDS011;14965;50.660;13.226;2023-06-14T06:09:54;7.78;;;3.80;;
27223;SDS011;14965;50.660;13.226;2023-06-14T06:12:20;8.05;;;3.78;;
27223;SDS011;14965;50.660;13.226;2023-06-14T06:14:47;5.30;;;4.13;;
27223;SDS011;14965;50.660;13.226;2023-06-14T06:17:13;8.23;;;3.75;;
27223;SDS011;14965;50.660;13.226;2023-06-14T06:19:38;6.00;;;4.07;;
27223;SDS011;14965;50.660;13.226;2023-06-14T06:22:04;6.78;;;3.92;;
27223;SDS011;14965;50.660;13.226;2023-06-14T06:24:30;8.23;;;3.97;;
27223;SDS011;14965;50.660;13.226;2023-06-14T06:26:56;5.75;;;4.20;;
27223;SDS011;14965;50.660;13.226;2023-06-14T06:29:22;8.38;;;4.30;;
27223;SDS011;14965;50.660;13.226;2023-06-14T06:31:49;5.65;;;3.85;;
27223;SDS011;14965;50.660;13.226;2023-06-14T06:34:15;6.82;;;3.80;;
27223;SDS011;14965;50.660;13.226;2023-06-14T06:36:40;4.72;;;3.90;;
27223;SDS011;14965;50.660;13.226;2023-06-14T06:39:06;6.05;;;4.25;;
27223;SDS011;14965;50.660;13.226;2023-06-14T06:41:32;4.53;;;4.03;;
27223;SDS011;14965;50.660;13.226;2023-06-14T06:43:58;7.38;;;4.00;;
27223;SDS011;14965;50.660;13.226;2023-06-14T06:46:24;6.13;;;4.45;;
27223;SDS011;14965;50.660;13.226;2023-06-14T06:48:51;6.55;;;4.10;;
27223;SDS011;14965;50.660;13.226;2023-06-14T06:51:17;6.75;;;4.57;;
27223;SDS011;14965;50.660;13.226;2023-06-14T06:53:43;6.30;;;4.38;;
27223;SDS011;14965;50.660;13.226;2023-06-14T06:56:08;7.43;;;4.38;;
27223;SDS011;14965;50.660;13.226;2023-06-14T06:58:34;13.43;;;4.80;;
27223;SDS011;14965;50.660;13.226;2023-06-14T07:01:00;8.88;;;4.93;;
27223;SDS011;14965;50.660;13.226;2023-06-14T07:03:26;8.25;;;4.88;;
27223;SDS011;14965;50.660;13.226;2023-06-14T07:05:53;7.75;;;4.85;;
27223;SDS011;14965;50.660;13.226;2023-06-14T07:08:19;8.20;;;5.18;;
27223;SDS011;14965;50.660;13.226;2023-06-14T07:10:45;9.93;;;5.07;;
27223;SDS011;14965;50.660;13.226;2023-06-14T07:13:11;7.53;;;5.50;;
27223;SDS011;14965;50.660;13.226;2023-06-14T07:15:37;6.57;;;5.15;;
27223;SDS011;14965;50.660;13.226;2023-06-14T07:18:02;9.30;;;4.55;;
27223;SDS011;14965;50.660;13.226;2023-06-14T07:20:28;7.35;;;4.47;;
27223;SDS011;14965;50.660;13.226;2023-06-14T07:22:55;7.40;;;4.68;;
27223;SDS011;14965;50.660;13.226;2023-06-14T07:25:21;6.05;;;4.75;;
27223;SDS011;14965;50.660;13.226;2023-06-14T07:27:47;8.95;;;4.97;;
27223;SDS011;14965;50.660;13.226;2023-06-14T07:30:13;6.57;;;4.68;;
27223;SDS011;14965;50.660;13.226;2023-06-14T07:32:39;7.85;;;4.82;;
27223;SDS011;14965;50.660;13.226;2023-06-14T07:35:05;8.30;;;4.60;;
27223;SDS011;14965;50.660;13.226;2023-06-14T07:37:32;6.47;;;4.40;;
27223;SDS011;14965;50.660;13.226;2023-06-14T07:39:59;8.07;;;4.25;;
27223;SDS011;14965;50.660;13.226;2023-06-14T07:42:25;8.98;;;4.63;;
27223;SDS011;14965;50.660;13.226;2023-06-14T07:44:51;5.32;;;4.45;;
27223;SDS011;14965;50.660;13.226;2023-06-14T07:47:17;6.57;;;4.25;;
27223;SDS011;14965;50.660;13.226;2023-06-14T07:49:42;8.00;;;4.65;;
27223;SDS011;14965;50.660;13.226;2023-06-14T07:52:08;7.82;;;4.78;;
27223;SDS011;14965;50.660;13.226;2023-06-14T07:54:34;7.68;;;4.80;;
27223;SDS011;14965;50.660;13.226;2023-06-14T07:57:01;6.82;;;4.95;;
27223;SDS011;14965;50.660;13.226;2023-06-14T07:59:27;6.95;;;4.78;;
27223;SDS011;14965;50.660;13.226;2023-06-14T08:01:53;9.35;;;5.22;;
27223;SDS011;14965;50.660;13.226;2023-06-14T08:04:19;5.28;;;4.55;;
27223;SDS011;14965;50.660;13.226;2023-06-14T08:06:45;9.38;;;5.10;;
27223;SDS011;14965;50.660;13.226;2023-06-14T08:09:11;9.85;;;4.80;;
27223;SDS011;14965;50.660;13.226;2023-06-14T08:11:38;9.35;;;4.90;;
27223;SDS011;14965;50.660;13.226;2023-06-14T08:14:05;11.30;;;4.35;;
27223;SDS011;14965;50.660;13.226;2023-06-14T08:16:31;7.65;;;4.95;;
27223;SDS011;14965;50.660;13.226;2023-06-14T08:18:57;8.05;;;4.22;;
27223;SDS011;14965;50.660;13.226;2023-06-14T08:21:23;6.88;;;4.57;;
27223;SDS011;14965;50.660;13.226;2023-06-14T08:23:48;6.75;;;4.50;;
27223;SDS011;14965;50.660;13.226;2023-06-14T08:26:14;8.52;;;4.72;;
27223;SDS011;14965;50.660;13.226;2023-06-14T08:28:40;9.85;;;4.78;;
27223;SDS011;14965;50.660;13.226;2023-06-14T08:31:08;6.57;;;4.70;;
27223;SDS011;14965;50.660;13.226;2023-06-14T08:33:34;7.77;;;5.10;;
27223;SDS011;14965;50.660;13.226;2023-06-14T08:36:00;7.85;;;4.72;;
27223;SDS011;14965;50.660;13.226;2023-06-14T08:38:26;8.52;;;5.40;;
27223;SDS011;14965;50.660;13.226;2023-06-14T08:40:52;7.35;;;5.68;;
27223;SDS011;14965;50.660;13.226;2023-06-14T08:43:22;8.63;;;5.13;;
27223;SDS011;14965;50.660;13.226;2023-06-14T08:45:48;5.90;;;4.65;;
27223;SDS011;14965;50.660;13.226;2023-06-14T08:48:25;8.70;;;4.68;;
27223;SDS011;14965;50.660;13.226;2023-06-14T08:50:51;9.02;;;5.20;;
27223;SDS011;14965;50.660;13.226;2023-06-14T08:53:21;7.75;;;5.05;;
27223;SDS011;14965;50.660;13.226;2023-06-14T08:55:47;7.38;;;5.07;;
27223;SDS011;14965;50.660;13.226;2023-06-14T08:58:13;7.82;;;4.82;;
27223;SDS011;14965;50.660;13.226;2023-06-14T09:00:39;6.53;;;4.80;;
27223;SDS011;14965;50.660;13.226;2023-06-14T09:03:05;7.70;;;5.38;;
27223;SDS011;14965;50.660;13.226;2023-06-14T09:05:32;8.20;;;5.38;;
27223;SDS011;14965;50.660;13.226;2023-06-14T09:07:58;8.43;;;4.60;;
27223;SDS011;14965;50.660;13.226;2023-06-14T09:10:24;7.85;;;4.65;;
27223;SDS011;14965;50.660;13.226;2023-06-14T09:12:51;8.90;;;5.00;;
27223;SDS011;14965;50.660;13.226;2023-06-14T09:15:16;8.88;;;4.70;;
27223;SDS011;14965;50.660;13.226;2023-06-14T09:17:42;7.45;;;4.35;;
27223;SDS011;14965;50.660;13.226;2023-06-14T09:20:08;5.45;;;4.40;;
27223;SDS011;14965;50.660;13.226;2023-06-14T09:22:37;7.47;;;4.50;;
27223;SDS011;14965;50.660;13.226;2023-06-14T09:25:03;7.43;;;4.32;;
27223;SDS011;14965;50.660;13.226;2023-06-14T09:27:30;7.00;;;4.47;;
27223;SDS011;14965;50.660;13.226;2023-06-14T09:29:56;8.43;;;4.63;;
27223;SDS011;14965;50.660;13.226;2023-06-14T09:32:22;6.40;;;4.70;;
27223;SDS011;14965;50.660;13.226;2023-06-14T09:34:48;5.18;;;4.00;;
27223;SDS011;14965;50.660;13.226;2023-06-14T09:37:25;6.10;;;4.07;;
27223;SDS011;14965;50.660;13.226;2023-06-14T09:39:54;4.97;;;4.15;;
27223;SDS011;14965;50.660;13.226;2023-06-14T09:42:20;8.55;;;4.90;;
27223;SDS011;14965;50.660;13.226;2023-06-14T09:44:47;7.32;;;4.53;;
27223;SDS011;14965;50.660;13.226;2023-06-14T09:47:14;7.88;;;3.80;;
27223;SDS011;14965;50.660;13.226;2023-06-14T09:49:41;5.72;;;4.20;;
27223;SDS011;14965;50.660;13.226;2023-06-14T09:52:07;7.05;;;4.28;;
27223;SDS011;14965;50.660;13.226;2023-06-14T09:54:40;7.97;;;3.70;;
27223;SDS011;14965;50.660;13.226;2023-06-14T09:57:09;7.30;;;3.90;;
27223;SDS011;14965;50.660;13.226;2023-06-14T09:59:37;6.40;;;4.30;;
27223;SDS011;14965;50.660;13.226;2023-06-14T10:02:10;7.03;;;3.85;;
27223;SDS011;14965;50.660;13.226;2023-06-14T10:04:48;8.10;;;4.00;;
27223;SDS011;14965;50.660;13.226;2023-06-14T10:07:22;10.60;;;4.35;;
27223;SDS011;14965;50.660;13.226;2023-06-14T10:09:52;5.97;;;3.88;;
27223;SDS011;14965;50.660;13.226;2023-06-14T10:12:20;5.70;;;4.00;;
27223;SDS011;14965;50.660;13.226;2023-06-14T10:14:46;7.55;;;4.22;;
27223;SDS011;14965;50.660;13.226;2023-06-14T10:17:17;5.55;;;4.22;;
27223;SDS011;14965;50.660;13.226;2023-06-14T10:19:54;8.40;;;4.70;;
27223;SDS011;14965;50.660;13.226;2023-06-14T10:22:37;7.07;;;4.30;;
27223;SDS011;14965;50.660;13.226;2023-06-14T10:25:12;9.57;;;4.25;;
27223;SDS011;14965;50.660;13.226;2023-06-14T10:27:52;7.35;;;4.50;;
27223;SDS011;14965;50.660;13.226;2023-06-14T10:30:18;9.55;;;4.65;;
27223;SDS011;14965;50.660;13.226;2023-06-14T10:33:03;7.68;;;4.65;;
27223;SDS011;14965;50.660;13.226;2023-06-14T10:35:30;7.28;;;4.43;;
27223;SDS011;14965;50.660;13.226;2023-06-14T10:37:56;6.50;;;4.35;;
27223;SDS011;14965;50.660;13.226;2023-06-14T10:40:33;5.72;;;4.15;;
27223;SDS011;14965;50.660;13.226;2023-06-14T10:43:01;6.95;;;4.00;;
27223;SDS011;14965;50.660;13.226;2023-06-14T10:48:42;8.85;;;4.40;;
27223;SDS011;14965;50.660;13.226;2023-06-14T10:51:15;7.47;;;4.00;;
27223;SDS011;14965;50.660;13.226;2023-06-14T10:53:42;6.57;;;4.20;;
27223;SDS011;14965;50.660;13.226;2023-06-14T10:56:08;6.60;;;4.20;;
27223;SDS011;14965;50.660;13.226;2023-06-14T10:58:37;5.85;;;3.78;;
27223;SDS011;14965;50.660;13.226;2023-06-14T11:01:03;5.88;;;3.92;;
27223;SDS011;14965;50.660;13.226;2023-06-14T11:03:43;4.25;;;3.20;;
27223;SDS011;14965;50.660;13.226;2023-06-14T11:06:16;7.50;;;4.00;;
27223;SDS011;14965;50.660;13.226;2023-06-14T11:08:56;5.03;;;3.58;;
27223;SDS011;14965;50.660;13.226;2023-06-14T11:12:00;5.68;;;3.40;;
27223;SDS011;14965;50.660;13.226;2023-06-14T11:14:30;4.68;;;3.58;;
27223;SDS011;14965;50.660;13.226;2023-06-14T11:16:56;6.35;;;3.83;;
27223;SDS011;14965;50.660;13.226;2023-06-14T11:19:22;9.95;;;3.60;;
27223;SDS011;14965;50.660;13.226;2023-06-14T11:21:48;6.22;;;3.17;;
27223;SDS011;14965;50.660;13.226;2023-06-14T11:24:14;4.55;;;3.60;;
27223;SDS011;14965;50.660;13.226;2023-06-14T11:26:40;6.75;;;3.58;;
27223;SDS011;14965;50.660;13.226;2023-06-14T11:29:06;5.70;;;3.42;;
27223;SDS011;14965;50.660;13.226;2023-06-14T11:31:33;6.05;;;3.28;;
27223;SDS011;14965;50.660;13.226;2023-06-14T11:33:59;4.75;;;2.92;;
27223;SDS011;14965;50.660;13.226;2023-06-14T11:36:26;4.53;;;2.85;;
27223;SDS011;14965;50.660;13.226;2023-06-14T11:38:57;3.70;;;3.00;;
27223;SDS011;14965;50.660;13.226;2023-06-14T11:41:24;4.93;;;2.95;;
27223;SDS011;14965;50.660;13.226;2023-06-14T11:43:52;2.90;;;2.63;;
27223;SDS011;14965;50.660;13.226;2023-06-14T11:46:18;6.53;;;3.00;;
27223;SDS011;14965;50.660;13.226;2023-06-14T11:48:45;3.05;;;2.75;;
27223;SDS011;14965;50.660;13.226;2023-06-14T11:51:11;5.57;;;2.60;;
27223;SDS011;14965;50.660;13.226;2023-06-14T11:53:37;3.15;;;2.70;;
27223;SDS011;14965;50.660;13.226;2023-06-14T11:56:03;3.15;;;2.80;;
27223;SDS011;14965;50.660;13.226;2023-06-14T11:58:30;4.03;;;2.75;;
27223;SDS011;14965;50.660;13.226;2023-06-14T12:00:56;3.22;;;2.67;;
27223;SDS011;14965;50.660;13.226;2023-06-14T12:03:22;4.65;;;3.00;;
27223;SDS011;14965;50.660;13.226;2023-06-14T12:05:50;3.35;;;2.90;;
27223;SDS011;14965;50.660;13.226;2023-06-14T12:08:31;4.68;;;2.60;;
27223;SDS011;14965;50.660;13.226;2023-06-14T12:10:58;3.70;;;2.95;;
27223;SDS011;14965;50.660;13.226;2023-06-14T12:13:24;4.03;;;3.00;;
27223;SDS011;14965;50.660;13.226;2023-06-14T12:15:53;3.20;;;2.90;;
27223;SDS011;14965;50.660;13.226;2023-06-14T12:18:20;4.75;;;3.60;;
27223;SDS011;14965;50.660;13.226;2023-06-14T12:20:59;4.47;;;3.80;;
27223;SDS011;14965;50.660;13.226;2023-06-14T12:23:26;7.25;;;3.05;;
27223;SDS011;14965;50.660;13.226;2023-06-14T12:25:51;4.75;;;3.42;;
27223;SDS011;14965;50.660;13.226;2023-06-14T12:28:17;5.03;;;3.55;;
27223;SDS011;14965;50.660;13.226;2023-06-14T12:30:43;5.15;;;3.33;;
27223;SDS011;14965;50.660;13.226;2023-06-14T12:33:09;6.50;;;4.10;;
27223;SDS011;14965;50.660;13.226;2023-06-14T12:35:35;5.78;;;3.90;;
27223;SDS011;14965;50.660;13.226;2023-06-14T12:38:02;8.23;;;3.63;;
27223;SDS011;14965;50.660;13.226;2023-06-14T12:40:28;7.40;;;4.03;;
27223;SDS011;14965;50.660;13.226;2023-06-14T12:42:54;6.25;;;3.80;;
27223;SDS011;14965;50.660;13.226;2023-06-14T12:45:20;5.28;;;3.75;;
27223;SDS011;14965;50.660;13.226;2023-06-14T12:47:46;6.22;;;3.97;;
27223;SDS011;14965;50.660;13.226;2023-06-14T12:50:12;6.65;;;4.05;;
27223;SDS011;14965;50.660;13.226;2023-06-14T12:52:37;5.68;;;3.80;;
27223;SDS011;14965;50.660;13.226;2023-06-14T12:55:07;5.55;;;4.38;;
27223;SDS011;14965;50.660;13.226;2023-06-14T12:57:33;7.13;;;4.25;;
27223;SDS011;14965;50.660;13.226;2023-06-14T12:59:59;6.28;;;4.45;;
27223;SDS011;14965;50.660;13.226;2023-06-14T13:02:25;8.60;;;4.25;;
27223;SDS011;14965;50.660;13.226;2023-06-14T13:04:51;9.63;;;4.13;;
27223;SDS011;14965;50.660;13.226;2023-06-14T13:07:17;4.57;;;4.00;;
27223;SDS011;14965;50.660;13.226;2023-06-14T13:12:13;8.73;;;4.40;;
27223;SDS011;14965;50.660;13.226;2023-06-14T13:14:39;4.45;;;4.05;;
27223;SDS011;14965;50.660;13.226;2023-06-14T13:17:06;5.38;;;3.55;;
27223;SDS011;14965;50.660;13.226;2023-06-14T13:19:33;4.90;;;4.07;;
27223;SDS011;14965;50.660;13.226;2023-06-14T13:21:59;4.70;;;3.78;;
27223;SDS011;14965;50.660;13.226;2023-06-14T13:24:25;6.63;;;3.83;;
27223;SDS011;14965;50.660;13.226;2023-06-14T13:26:50;4.60;;;3.88;;
27223;SDS011;14965;50.660;13.226;2023-06-14T13:29:18;6.32;;;3.70;;
27223;SDS011;14965;50.660;13.226;2023-06-14T13:31:44;4.60;;;3.67;;
27223;SDS011;14965;50.660;13.226;2023-06-14T13:34:09;4.30;;;3.50;;
27223;SDS011;14965;50.660;13.226;2023-06-14T13:36:35;8.07;;;3.75;;
27223;SDS011;14965;50.660;13.226;2023-06-14T13:39:01;5.80;;;3.38;;
27223;SDS011;14965;50.660;13.226;2023-06-14T13:41:28;4.75;;;3.50;;
27223;SDS011;14965;50.660;13.226;2023-06-14T13:43:54;4.97;;;3.10;;
27223;SDS011;14965;50.660;13.226;2023-06-14T13:46:21;4.10;;;2.95;;
27223;SDS011;14965;50.660;13.226;2023-06-14T13:48:47;6.72;;;3.30;;
27223;SDS011;14965;50.660;13.226;2023-06-14T13:51:13;4.78;;;3.25;;
27223;SDS011;14965;50.660;13.226;2023-06-14T13:53:38;7.15;;;3.60;;
27223;SDS011;14965;50.660;13.226;2023-06-14T13:56:04;5.80;;;4.00;;
27223;SDS011;14965;50.660;13.226;2023-06-14T13:58:30;6.30;;;3.80;;
27223;SDS011;14965;50.660;13.226;2023-06-14T14:00:56;5.88;;;4.07;;
27223;SDS011;14965;50.660;13.226;2023-06-14T14:03:23;7.63;;;4.35;;
27223;SDS011;14965;50.660;13.226;2023-06-14T14:05:49;7.75;;;4.63;;
27223;SDS011;14965;50.660;13.226;2023-06-14T14:08:15;7.30;;;4.88;;
27223;SDS011;14965;50.660;13.226;2023-06-14T14:10:40;6.50;;;4.60;;
27223;SDS011;14965;50.660;13.226;2023-06-14T14:13:06;6.68;;;5.07;;
27223;SDS011;14965;50.660;13.226;2023-06-14T14:15:32;7.18;;;5.50;;
27223;SDS011;14965;50.660;13.226;2023-06-14T14:17:58;10.25;;;5.00;;
27223;SDS011;14965;50.660;13.226;2023-06-14T14:20:25;7.55;;;5.07;;
27223;SDS011;14965;50.660;13.226;2023-06-14T14:22:51;8.70;;;4.70;;
27223;SDS011;14965;50.660;13.226;2023-06-14T14:25:17;6.65;;;4.55;;
27223;SDS011;14965;50.660;13.226;2023-06-14T14:27:42;6.13;;;4.95;;
27223;SDS011;14965;50.660;13.226;2023-06-14T14:30:09;8.02;;;5.40;;
27223;SDS011;14965;50.660;13.226;2023-06-14T14:32:36;5.53;;;4.53;;
27223;SDS011;14965;50.660;13.226;2023-06-14T14:35:01;8.05;;;5.63;;
27223;SDS011;14965;50.660;13.226;2023-06-14T14:37:29;6.43;;;5.32;;